Date,TemperatureHighF,TemperatureAvgF,TemperatureLowF,DewpointHighF,DewpointAvgF,DewpointLowF,HumidityHigh,HumidityAvg,HumidityLow,PressureMaxIn,PressureMinIn,WindSpeedMaxMPH,WindSpeedAvgMPH,GustSpeedMaxMPH,PrecipitationSumIn
2013-1-1,24.6,17.8,11.1,19.9,15.1,8.4,92,89,82,30.38,30.15,17,7,18,0.00
2013-1-2,32.7,21.5,10.4,26.2,16.4,6.4,91,81,70,30.46,30.29,20,10,20,0.03
2013-1-3,34.0,21.2,14.7,21.6,15.1,9.7,86,77,56,30.58,30.45,14,7,14,0.04
2013-1-4,36.0,25.5,14.5,30.2,20.7,10.0,91,82,72,30.47,30.15,27,14,28,0.00
2013-1-5,40.8,29.7,16.5,28.0,21.8,10.4,90,73,51,30.43,30.07,25,12,27,0.00
2013-1-6,46.6,33.0,19.8,31.3,24.1,14.9,84,71,50,30.44,30.15,25,12,27,0.00
2013-1-7,47.1,38.5,32.2,32.0,27.3,24.4,76,64,46,30.15,29.84,33,16,34,0.00
2013-1-8,56.8,39.5,30.6,36.7,28.5,24.1,82,66,33,30.17,29.78,23,11,23,0.00
2013-1-9,52.3,39.9,28.4,35.1,28.6,23.7,91,66,37,30.38,30.10,17,8,20,0.03
2013-1-10,46.8,38.9,35.4,42.8,37.1,34.3,96,93,83,30.11,29.50,25,9,26,0.29
2013-1-11,59.4,45.1,28.9,40.8,27.9,13.6,82,53,25,29.71,29.31,62,22,65,0.00
2013-1-12,28.8,23.3,18.0,22.1,14.4,11.3,83,69,56,30.14,29.70,21,8,21,0.00
2013-1-13,28.0,19.7,13.5,14.0,11.5,8.8,82,71,51,30.35,30.14,15,4,15,0.00
2013-1-14,28.9,22.3,13.6,17.8,12.5,8.8,84,67,43,30.43,30.26,17,5,17,0.00
2013-1-15,32.4,22.2,11.1,21.4,16.0,8.6,91,78,53,30.31,30.22,16,6,16,0.00
2013-1-16,53.4,36.6,18.7,31.5,23.5,12.7,80,61,40,30.35,30.16,22,10,23,0.00
2013-1-17,53.1,38.1,25.2,28.4,24.4,19.6,81,60,33,30.55,30.34,20,8,21,0.00
2013-1-18,60.4,42.7,30.4,29.5,25.6,21.7,74,54,26,30.35,29.97,40,17,41,0.00
2013-1-19,60.1,44.8,30.4,24.1,19.1,15.3,73,40,19,30.19,29.94,22,10,23,0.00
2013-1-20,57.6,39.1,27.0,25.5,20.9,15.8,82,52,21,30.29,29.99,30,12,31,0.00
2013-1-21,47.7,30.1,17.4,29.1,22.2,15.1,91,74,47,30.36,30.14,20,7,20,0.00
2013-1-22,62.2,42.0,25.5,28.9,22.0,16.7,83,51,17,30.15,30.02,18,7,19,0.00
2013-1-23,73.2,44.0,24.3,27.1,19.3,4.6,82,48,7,30.15,29.99,15,7,16,0.00
2013-1-24,38.7,28.8,24.1,28.8,24.0,20.5,92,82,66,30.17,29.99,15,4,16,0.00
2013-1-25,52.9,39.3,26.1,27.9,24.5,22.1,90,59,31,30.30,30.08,14,5,14,0.00
2013-1-26,61.0,44.7,30.0,45.0,31.8,24.1,83,62,40,30.11,29.73,29,9,29,0.00
2013-1-27,72.7,56.7,45.7,43.2,38.3,32.2,87,54,26,29.73,29.47,42,20,42,0.00
2013-1-28,69.1,54.4,41.0,39.0,33.5,27.5,74,48,25,29.58,29.39,47,20,49,0.00
2013-1-29,50.5,36.5,27.1,35.8,30.2,21.0,94,80,42,29.73,29.36,28,12,30,0.00
2013-1-30,44.4,30.3,21.7,22.1,16.1,4.3,80,60,20,30.05,29.73,23,12,25,0.00
2013-1-31,50.4,35.1,21.6,26.8,21.1,15.8,80,59,32,30.27,29.96,23,10,24,0.00
2013-2-1,57.7,34.0,16.2,28.6,20.7,13.5,91,63,27,30.30,29.99,32,8,32,0.00
2013-2-2,56.3,40.8,27.1,30.7,23.8,19.2,83,54,27,30.33,30.14,19,8,19,0.00
2013-2-3,62.2,45.4,26.6,31.3,23.7,18.3,72,46,21,30.24,29.66,41,15,44,0.00
2013-2-4,58.5,44.8,34.5,31.3,22.6,18.7,57,43,23,29.88,29.64,20,7,21,0.00
2013-2-5,62.2,43.7,25.9,25.0,20.7,16.0,70,43,21,29.94,29.76,29,10,30,0.00
2013-2-6,71.1,49.0,31.5,39.9,28.2,19.2,92,52,16,29.87,29.49,33,12,35,0.00
2013-2-7,54.5,45.7,30.9,36.3,26.6,18.7,71,48,35,30.11,29.58,32,14,32,0.00
2013-2-8,55.2,39.6,26.1,26.1,20.4,16.2,75,49,24,30.18,29.88,34,12,34,0.00
2013-2-9,61.0,45.9,32.5,39.7,23.1,11.5,54,41,21,29.88,29.23,41,16,44,0.00
2013-2-10,49.3,38.5,25.0,26.4,17.2,10.9,79,44,27,30.00,29.35,34,13,36,0.00
2013-2-11,43.3,31.8,17.4,20.8,16.7,11.7,80,55,38,30.19,30.00,14,5,15,0.00
2013-2-12,37.2,30.2,21.4,32.4,27.8,18.7,96,91,50,30.09,29.95,17,4,18,0.07
2013-2-13,39.0,27.9,18.0,30.9,20.7,10.9,85,74,60,30.10,29.94,16,8,16,0.14
2013-2-14,43.2,34.2,24.8,34.5,27.7,19.0,84,77,70,30.35,30.01,28,8,32,0.02
2013-2-15,45.0,34.8,27.3,31.1,26.0,21.2,86,71,46,30.40,30.23,23,6,24,0.00
2013-2-16,61.3,39.4,23.4,33.6,24.8,18.5,87,61,22,30.40,29.93,33,12,33,0.00
2013-2-17,69.4,47.7,27.7,29.5,22.6,13.3,79,44,12,29.93,29.34,29,9,30,0.00
2013-2-18,50.2,41.3,32.2,25.3,17.6,9.9,63,40,21,30.06,29.34,37,15,38,0.00
2013-2-19,54.0,37.9,22.5,24.3,19.3,12.7,72,49,27,30.18,29.89,30,8,33,0.00
2013-2-20,41.4,36.0,32.2,37.2,33.3,22.6,96,91,48,29.89,29.60,30,12,31,0.11
2013-2-21,32.2,22.8,7.2,31.1,21.2,4.3,96,93,88,30.01,29.47,27,10,27,0.00
2013-2-22,32.4,18.5,2.3,29.5,16.0,-0.8,93,90,87,30.20,30.00,12,5,12,0.05
2013-2-23,38.3,32.0,22.5,34.5,29.0,19.9,92,89,83,30.10,29.59,22,8,24,0.01
2013-2-24,34.3,30.2,20.8,31.5,27.4,17.6,96,89,82,29.85,29.53,31,14,31,0.00
2013-2-25,32.2,28.3,21.4,30.7,27.0,19.4,96,95,91,29.91,29.74,38,19,40,0.01
2013-2-26,34.9,26.2,13.6,32.2,23.0,11.3,93,88,78,29.96,29.78,18,6,19,0.00
2013-2-27,41.7,33.3,24.1,32.4,26.4,21.2,95,77,51,30.27,29.96,26,13,26,0.00
2013-2-28,46.6,35.8,27.1,29.8,24.1,20.3,79,64,37,30.32,30.17,20,7,20,0.00
2013-3-1,48.7,37.8,30.2,31.3,28.0,24.3,92,69,41,30.35,30.17,29,11,30,0.00
2013-3-2,64.2,44.3,29.7,39.7,33.0,27.5,92,69,30,30.34,30.00,16,8,22,0.00
2013-3-3,71.1,49.6,33.6,44.1,35.0,28.9,84,61,25,30.00,29.33,26,11,27,0.00
2013-3-4,58.6,47.6,32.5,39.7,33.7,27.5,92,60,43,30.10,29.35,39,15,39,0.00
2013-3-5,47.8,34.7,23.2,30.4,20.2,14.2,89,59,27,30.41,30.09,19,7,19,0.00
2013-3-6,60.3,42.7,29.7,26.8,22.2,19.6,68,46,26,30.30,29.86,41,16,43,0.00
2013-3-7,81.9,57.4,33.3,33.4,27.4,22.5,69,37,13,29.86,29.63,38,14,38,0.00
2013-3-8,71.6,57.5,48.2,54.3,43.2,32.2,89,60,40,29.72,29.44,33,12,42,0.00
2013-3-9,63.0,51.2,34.3,48.6,33.8,9.7,92,61,13,29.60,29.25,48,21,48,0.01
2013-3-10,39.0,32.3,20.3,31.5,20.7,12.4,92,64,40,30.11,29.59,47,22,51,0.01
2013-3-11,64.6,42.6,19.9,29.1,21.0,13.8,82,50,18,30.10,29.80,17,7,18,0.00
2013-3-12,54.0,42.6,31.3,32.9,27.4,22.8,90,58,33,30.29,29.88,24,9,24,0.00
2013-3-13,68.4,49.1,31.6,34.5,28.9,23.7,80,50,22,30.30,30.09,34,10,36,0.00
2013-3-14,76.5,56.7,32.5,35.4,29.8,25.5,77,41,16,30.11,29.95,20,8,20,0.00
2013-3-15,83.8,62.7,43.0,36.5,25.7,8.4,59,32,7,29.96,29.48,25,9,33,0.00
2013-3-16,56.3,50.2,39.9,37.9,30.7,23.4,78,48,29,29.78,29.41,32,15,32,0.00
2013-3-17,64.2,44.4,28.4,38.1,31.0,24.3,85,62,34,29.78,29.34,27,6,30,0.00
2013-3-18,55.8,43.5,30.7,36.9,23.6,14.0,90,52,21,29.93,29.46,20,6,20,0.00
2013-3-19,54.9,42.5,31.5,31.6,22.5,10.6,74,47,26,30.19,29.84,22,6,22,0.00
2013-3-20,61.9,43.3,22.6,27.9,19.1,10.0,68,41,19,30.32,29.67,38,10,40,0.00
2013-3-21,65.8,51.0,38.8,36.0,31.3,25.3,81,49,27,29.67,29.23,25,9,29,0.00
2013-3-22,56.7,41.7,26.1,34.5,29.6,23.2,91,66,35,29.78,29.54,25,8,27,0.00
2013-3-23,42.1,33.0,22.6,35.8,30.0,20.7,95,89,69,30.11,29.53,31,14,32,0.00
2013-3-24,37.4,26.4,16.9,26.2,19.5,12.6,92,76,49,30.29,30.11,25,8,25,0.01
2013-3-25,42.1,30.9,19.2,26.2,18.9,14.5,86,62,39,30.43,30.27,18,7,18,0.00
2013-3-26,63.9,40.8,19.6,22.6,18.1,13.1,79,47,18,30.41,29.90,40,13,40,0.00
2013-3-27,65.1,50.8,37.2,28.6,24.4,18.5,57,37,23,29.95,29.77,30,11,32,0.00
2013-3-28,68.4,50.0,33.8,41.4,34.8,26.2,80,58,35,30.00,29.87,14,5,14,0.00
2013-3-29,70.5,54.7,39.6,52.7,45.9,37.4,95,74,50,29.95,29.78,19,6,19,0.00
2013-3-30,76.6,59.8,42.3,48.4,39.4,30.9,94,55,20,29.87,29.68,19,7,19,0.00
2013-3-31,66.9,54.9,44.6,46.4,38.0,29.3,92,59,25,29.92,29.75,40,8,40,0.02
2013-4-1,51.4,40.6,33.4,43.0,32.2,24.8,85,72,49,30.10,29.75,28,8,28,0.00
2013-4-2,35.8,32.8,30.7,33.4,30.0,25.0,96,89,70,30.23,30.10,16,7,17,0.00
2013-4-3,37.6,33.6,30.7,33.8,31.5,29.5,96,92,85,30.25,30.14,14,4,14,0.04
2013-4-4,66.0,45.6,29.1,41.9,33.2,27.7,97,69,27,30.21,30.00,11,1,11,0.03
2013-4-5,81.1,60.2,39.0,39.7,34.7,21.2,86,46,11,30.01,29.46,48,15,48,0.00
2013-4-6,72.3,61.4,49.3,37.9,32.9,28.8,55,36,21,29.66,29.46,29,6,30,0.00
2013-4-7,79.0,62.2,44.4,47.7,39.5,31.1,77,47,20,29.60,29.33,14,1,15,0.00
2013-4-8,84.6,67.8,56.1,57.4,45.8,21.6,93,57,11,29.33,29.03,33,3,36,0.00
2013-4-9,67.3,38.6,23.0,57.6,28.8,11.8,82,68,49,30.01,29.05,38,18,39,0.00
2013-4-10,43.2,29.2,19.2,12.9,10.4,8.1,63,47,27,30.18,29.93,34,16,36,0.00
2013-4-11,66.9,42.7,19.6,30.9,19.5,10.9,71,44,16,30.04,29.61,31,6,32,0.00
2013-4-12,66.6,51.0,38.5,35.8,31.4,26.1,71,50,26,29.83,29.63,22,2,22,0.00
2013-4-13,79.9,58.7,36.7,47.8,38.2,27.3,89,53,16,29.83,29.20,40,9,40,0.00
2013-4-14,73.2,62.6,50.4,50.9,34.4,14.9,82,41,15,29.44,29.08,42,12,46,0.00
2013-4-15,73.0,53.1,34.5,38.7,26.1,14.0,69,37,22,29.62,29.41,27,6,30,0.00
2013-4-16,57.4,45.2,37.8,38.7,31.7,24.1,83,60,46,29.87,29.62,24,7,25,0.00
2013-4-17,43.3,38.3,33.4,40.3,36.8,31.5,96,94,83,29.86,29.57,31,5,31,0.09
2013-4-18,44.2,34.5,26.2,31.6,22.9,15.8,94,66,33,30.20,29.86,35,19,38,0.03
2013-4-19,64.2,44.4,22.5,25.9,16.6,9.7,81,42,12,30.22,29.88,17,2,19,0.00
2013-4-20,69.3,53.7,40.6,30.7,21.3,15.1,46,29,15,29.88,29.64,23,5,24,0.02
2013-4-21,74.1,56.5,31.6,41.5,30.3,23.9,77,41,18,29.89,29.73,25,7,25,0.00
2013-4-22,79.9,56.9,33.3,46.9,39.4,28.6,93,60,18,29.92,29.47,48,14,48,0.00
2013-4-23,33.3,29.8,24.3,29.1,25.0,19.6,91,82,66,30.35,29.91,32,11,35,0.00
2013-4-24,62.6,41.8,19.2,26.4,17.9,13.3,89,48,15,30.35,30.12,19,7,21,0.00
2013-4-25,69.8,52.5,36.1,36.0,24.4,7.3,60,36,13,30.21,29.81,35,14,38,0.00
2013-4-26,71.4,56.8,45.3,50.0,41.5,26.8,80,57,40,30.01,29.70,42,12,42,0.00
2013-4-27,80.1,60.3,38.8,44.6,35.5,28.8,87,48,16,30.02,29.73,30,7,33,0.00
2013-4-28,87.4,67.9,43.9,39.9,26.5,7.2,58,28,6,29.78,29.47,30,9,30,0.00
2013-4-29,88.3,71.2,57.6,40.8,30.9,15.8,45,25,7,29.48,29.23,31,11,33,0.00
2013-4-30,94.5,76.9,60.4,49.6,37.8,16.9,54,28,6,29.27,29.13,45,14,45,0.00
2013-5-1,72.3,47.4,33.3,50.7,38.6,31.1,93,73,45,30.33,29.18,49,22,50,0.00
2013-5-2,50.9,38.6,28.8,33.8,26.1,15.4,95,66,29,30.65,30.32,34,17,36,0.00
2013-5-3,66.6,46.5,25.2,22.1,18.1,14.7,68,37,15,30.48,29.91,22,10,26,0.00
2013-5-4,66.6,49.5,32.9,26.4,19.4,5.7,60,34,11,30.03,29.88,27,10,28,0.00
2013-5-5,64.8,50.3,32.2,27.3,20.5,15.4,65,35,16,30.14,29.96,17,6,24,0.00
2013-5-6,75.4,58.1,42.4,46.4,36.7,19.4,72,48,20,29.99,29.78,38,10,39,0.00
2013-5-7,83.5,64.9,43.3,48.7,41.1,20.1,87,48,11,29.80,29.53,34,10,35,0.00
2013-5-8,85.1,67.5,50.9,46.4,38.3,13.3,78,42,7,29.66,29.42,38,13,38,0.00
2013-5-9,75.0,59.5,46.8,51.3,46.0,42.3,88,64,35,29.91,29.65,33,10,35,0.01
2013-5-10,70.7,58.7,48.4,51.4,46.0,37.4,94,67,30,30.00,29.88,22,7,22,0.00
2013-5-11,72.9,59.6,44.2,48.2,42.8,38.3,87,58,31,30.13,30.00,30,9,30,0.00
2013-5-12,83.5,65.6,45.0,48.4,40.6,32.5,88,47,16,30.11,29.77,33,10,33,0.00
2013-5-13,90.7,73.1,51.4,43.0,36.4,28.0,67,32,11,29.87,29.68,29,12,29,0.00
2013-5-14,90.1,74.8,59.2,47.5,36.1,29.8,39,26,12,29.72,29.47,32,15,33,0.00
2013-5-15,86.4,71.1,52.9,54.7,45.3,38.1,69,43,19,29.55,29.37,22,10,23,0.00
2013-5-16,87.6,70.7,50.2,56.7,51.2,46.0,92,56,26,29.57,29.35,28,8,32,0.00
2013-5-17,93.0,74.0,61.5,62.8,57.8,47.3,87,62,23,29.54,29.35,38,12,38,0.00
2013-5-18,96.3,81.0,63.3,67.6,40.6,16.0,90,37,7,29.47,29.17,34,13,36,0.00
2013-5-19,82.8,70.8,58.8,52.7,40.5,25.5,68,36,16,29.42,29.24,27,8,33,0.00
2013-5-20,77.4,62.6,49.8,49.1,43.8,40.1,74,53,28,29.65,29.41,43,8,47,0.00
2013-5-21,77.2,64.6,55.0,47.7,39.1,30.2,73,42,21,29.72,29.53,29,10,29,0.00
2013-5-22,87.4,67.7,46.0,47.3,40.3,30.9,69,40,17,29.73,29.48,25,8,27,0.00
2013-5-23,69.4,63.5,55.6,56.7,52.5,42.3,83,68,39,29.86,29.58,31,15,31,0.00
2013-5-24,87.3,72.2,59.5,60.6,55.3,47.3,93,61,26,29.89,29.66,36,14,36,0.00
2013-5-25,90.7,75.8,63.1,59.9,56.7,49.6,83,55,29,29.84,29.47,36,16,39,0.00
2013-5-26,97.2,79.1,58.1,60.3,48.7,27.1,83,41,10,29.61,29.34,40,12,40,0.00
2013-5-27,96.1,83.1,68.4,62.6,30.5,-20.9,73,28,1,29.39,29.19,34,16,34,0.00
2013-5-28,94.6,74.3,56.5,60.4,34.5,12.7,67,26,5,29.33,29.13,59,13,60,0.00
2013-5-29,87.1,74.6,63.3,64.9,57.0,29.3,87,58,13,29.22,28.97,61,18,62,0.00
2013-5-30,92.8,74.4,55.8,56.3,36.1,15.4,78,34,6,29.39,29.06,37,15,46,0.00
2013-5-31,92.5,72.9,50.4,53.4,40.9,20.8,89,42,8,29.50,29.26,47,8,47,0.00
2013-6-1,78.4,66.7,51.4,44.8,41.1,36.3,68,41,24,29.89,29.48,32,12,33,0.00
2013-6-2,84.4,66.8,45.7,45.9,42.5,36.7,77,45,24,29.97,29.62,28,8,28,0.00
2013-6-3,98.6,79.8,62.2,56.1,46.1,34.5,53,34,13,29.66,29.21,41,16,45,0.00
2013-6-4,93.0,77.9,63.0,63.1,56.8,49.6,89,52,24,29.53,29.31,40,11,40,0.05
2013-6-5,71.1,62.4,57.9,63.1,57.4,53.4,91,84,73,29.87,29.48,30,10,32,0.03
2013-6-6,79.2,65.6,53.2,54.0,52.3,49.1,93,65,38,29.90,29.70,16,5,17,0.00
2013-6-7,89.2,69.3,59.0,60.4,53.8,46.4,83,61,23,29.81,29.50,34,11,42,0.01
2013-6-8,88.0,71.6,57.4,62.2,57.8,50.7,92,65,33,29.61,29.36,40,17,45,0.00
2013-6-9,89.6,73.0,55.0,61.7,57.1,48.2,96,63,31,29.73,29.55,28,8,30,0.01
2013-6-10,103.3,85.0,67.6,59.7,52.9,36.7,70,39,11,29.59,29.38,39,16,39,0.00
2013-6-11,102.4,87.8,72.3,52.5,49.7,45.1,46,29,16,29.50,29.31,42,18,42,0.00
2013-6-12,100.2,86.5,70.2,58.8,49.9,39.2,51,31,13,29.60,29.41,32,11,34,0.00
2013-6-13,96.3,84.4,65.5,61.9,57.2,48.4,76,43,22,29.67,29.50,34,10,34,0.00
2013-6-14,94.6,81.1,67.5,62.2,55.7,39.6,82,46,15,29.60,29.47,42,14,42,0.00
2013-6-15,92.1,78.3,65.3,65.3,60.5,42.6,92,59,25,29.60,29.38,35,13,36,0.00
2013-6-16,91.8,75.7,62.2,67.6,62.2,46.4,93,66,31,29.75,29.48,33,14,33,0.19
2013-6-17,84.6,72.4,60.3,63.5,60.2,56.5,95,69,41,29.81,29.60,22,6,24,0.00
2013-6-18,88.9,77.5,63.7,63.7,58.5,52.2,87,55,30,29.80,29.55,28,8,29,0.00
2013-6-19,75.7,68.3,64.9,64.0,61.7,57.2,95,80,53,29.72,29.51,46,12,46,0.41